sensor_id;sensor_type;location;lat;lon;timestamp;P1;durP1;ratioP1;P2;durP2;ratioP2
47960;SDS011;33721;48.852;9.936;2022-07-29T00:01:52;20.38;;;8.50;;
47960;SDS011;33721;48.852;9.936;2022-07-29T00:04:18;12.43;;;8.77;;
47960;SDS011;33721;48.852;9.936;2022-07-29T00:06:44;12.75;;;8.30;;
47960;SDS011;33721;48.852;9.936;2022-07-29T00:09:10;13.07;;;8.15;;
47960;SDS011;33721;48.852;9.936;2022-07-29T00:11:36;13.77;;;8.45;;
47960;SDS011;33721;48.852;9.936;2022-07-29T00:14:01;11.82;;;8.35;;
47960;SDS011;33721;48.852;9.936;2022-07-29T00:16:27;12.80;;;8.68;;
47960;SDS011;33721;48.852;9.936;2022-07-29T00:18:52;13.32;;;8.68;;
47960;SDS011;33721;48.852;9.936;2022-07-29T00:21:18;14.70;;;8.90;;
47960;SDS011;33721;48.852;9.936;2022-07-29T00:23:44;13.15;;;8.40;;
47960;SDS011;33721;48.852;9.936;2022-07-29T00:26:10;11.93;;;8.65;;
47960;SDS011;33721;48.852;9.936;2022-07-29T00:28:35;13.88;;;8.93;;
47960;SDS011;33721;48.852;9.936;2022-07-29T00:31:01;17.02;;;9.13;;
47960;SDS011;33721;48.852;9.936;2022-07-29T00:33:27;14.80;;;8.82;;
47960;SDS011;33721;48.852;9.936;2022-07-29T00:35:53;13.48;;;9.15;;
47960;SDS011;33721;48.852;9.936;2022-07-29T00:38:19;11.50;;;7.75;;
47960;SDS011;33721;48.852;9.936;2022-07-29T00:40:47;12.35;;;8.52;;
47960;SDS011;33721;48.852;9.936;2022-07-29T00:43:13;15.60;;;9.63;;
47960;SDS011;33721;48.852;9.936;2022-07-29T00:45:39;13.40;;;8.75;;
47960;SDS011;33721;48.852;9.936;2022-07-29T00:48:06;13.45;;;8.32;;
47960;SDS011;33721;48.852;9.936;2022-07-29T00:50:33;10.27;;;7.20;;
47960;SDS011;33721;48.852;9.936;2022-07-29T00:53:00;12.10;;;8.27;;
47960;SDS011;33721;48.852;9.936;2022-07-29T00:55:26;9.05;;;6.43;;
47960;SDS011;33721;48.852;9.936;2022-07-29T00:57:53;9.30;;;6.35;;
47960;SDS011;33721;48.852;9.936;2022-07-29T01:00:22;9.45;;;6.68;;
47960;SDS011;33721;48.852;9.936;2022-07-29T01:02:50;9.93;;;6.22;;
47960;SDS011;33721;48.852;9.936;2022-07-29T01:05:19;10.57;;;6.40;;
47960;SDS011;33721;48.852;9.936;2022-07-29T01:07:48;10.77;;;6.65;;
47960;SDS011;33721;48.852;9.936;2022-07-29T01:10:16;11.73;;;7.47;;
47960;SDS011;33721;48.852;9.936;2022-07-29T01:12:44;20.08;;;7.40;;
47960;SDS011;33721;48.852;9.936;2022-07-29T01:15:12;15.73;;;8.20;;
47960;SDS011;33721;48.852;9.936;2022-07-29T01:17:46;11.73;;;7.50;;
47960;SDS011;33721;48.852;9.936;2022-07-29T01:20:17;15.20;;;7.78;;
47960;SDS011;33721;48.852;9.936;2022-07-29T01:23:18;12.18;;;7.20;;
47960;SDS011;33721;48.852;9.936;2022-07-29T01:31:35;10.80;;;7.57;;
47960;SDS011;33721;48.852;9.936;2022-07-29T01:34:11;13.77;;;8.63;;
47960;SDS011;33721;48.852;9.936;2022-07-29T01:36:43;11.80;;;8.00;;
47960;SDS011;33721;48.852;9.936;2022-07-29T01:39:17;13.20;;;8.32;;
47960;SDS011;33721;48.852;9.936;2022-07-29T01:41:57;15.27;;;8.52;;
47960;SDS011;33721;48.852;9.936;2022-07-29T01:44:34;11.70;;;8.13;;
47960;SDS011;33721;48.852;9.936;2022-07-29T01:47:10;15.52;;;8.35;;
47960;SDS011;33721;48.852;9.936;2022-07-29T01:49:41;14.70;;;8.23;;
47960;SDS011;33721;48.852;9.936;2022-07-29T01:52:27;15.38;;;8.45;;
47960;SDS011;33721;48.852;9.936;2022-07-29T01:55:01;14.13;;;9.50;;
47960;SDS011;33721;48.852;9.936;2022-07-29T01:57:31;12.85;;;9.40;;
47960;SDS011;33721;48.852;9.936;2022-07-29T02:00:00;14.65;;;9.63;;
47960;SDS011;33721;48.852;9.936;2022-07-29T02:02:28;15.93;;;9.93;;
47960;SDS011;33721;48.852;9.936;2022-07-29T02:04:56;13.60;;;8.75;;
47960;SDS011;33721;48.852;9.936;2022-07-29T02:07:23;14.65;;;9.55;;
47960;SDS011;33721;48.852;9.936;2022-07-29T02:09:53;12.07;;;8.88;;
47960;SDS011;33721;48.852;9.936;2022-07-29T02:12:21;12.50;;;8.77;;
47960;SDS011;33721;48.852;9.936;2022-07-29T02:14:50;16.77;;;9.48;;
47960;SDS011;33721;48.852;9.936;2022-07-29T02:17:21;13.95;;;9.05;;
47960;SDS011;33721;48.852;9.936;2022-07-29T02:19:53;12.70;;;8.80;;
47960;SDS011;33721;48.852;9.936;2022-07-29T02:22:24;14.18;;;9.48;;
47960;SDS011;33721;48.852;9.936;2022-07-29T02:24:53;12.20;;;8.65;;
47960;SDS011;33721;48.852;9.936;2022-07-29T02:27:20;15.63;;;8.63;;
47960;SDS011;33721;48.852;9.936;2022-07-29T02:29:47;14.68;;;8.73;;
47960;SDS011;33721;48.852;9.936;2022-07-29T02:32:15;13.55;;;8.68;;
47960;SDS011;33721;48.852;9.936;2022-07-29T02:34:42;15.00;;;9.07;;
47960;SDS011;33721;48.852;9.936;2022-07-29T02:37:10;15.05;;;9.00;;
47960;SDS011;33721;48.852;9.936;2022-07-29T02:39:36;11.63;;;8.57;;
47960;SDS011;33721;48.852;9.936;2022-07-29T02:42:05;18.98;;;9.57;;
47960;SDS011;33721;48.852;9.936;2022-07-29T02:44:37;13.57;;;8.95;;
47960;SDS011;33721;48.852;9.936;2022-07-29T02:47:08;15.10;;;9.30;;
47960;SDS011;33721;48.852;9.936;2022-07-29T02:50:27;13.00;;;9.18;;
47960;SDS011;33721;48.852;9.936;2022-07-29T02:52:30;12.95;;;9.57;;
47960;SDS011;33721;48.852;9.936;2022-07-29T03:02:45;12.32;;;9.43;;
47960;SDS011;33721;48.852;9.936;2022-07-29T03:05:19;15.73;;;9.77;;
47960;SDS011;33721;48.852;9.936;2022-07-29T03:07:47;16.63;;;10.68;;
47960;SDS011;33721;48.852;9.936;2022-07-29T03:10:18;16.05;;;9.68;;
47960;SDS011;33721;48.852;9.936;2022-07-29T03:12:44;17.80;;;10.00;;
47960;SDS011;33721;48.852;9.936;2022-07-29T03:15:10;22.38;;;9.55;;
47960;SDS011;33721;48.852;9.936;2022-07-29T03:17:37;14.40;;;9.63;;
47960;SDS011;33721;48.852;9.936;2022-07-29T03:20:04;15.50;;;9.68;;
47960;SDS011;33721;48.852;9.936;2022-07-29T03:22:31;15.65;;;9.63;;
47960;SDS011;33721;48.852;9.936;2022-07-29T03:24:57;12.95;;;9.60;;
47960;SDS011;33721;48.852;9.936;2022-07-29T03:27:23;15.80;;;9.32;;
47960;SDS011;33721;48.852;9.936;2022-07-29T03:29:48;13.45;;;9.10;;
47960;SDS011;33721;48.852;9.936;2022-07-29T03:32:14;17.58;;;9.40;;
47960;SDS011;33721;48.852;9.936;2022-07-29T03:34:40;16.73;;;9.73;;
47960;SDS011;33721;48.852;9.936;2022-07-29T03:37:05;14.60;;;10.68;;
47960;SDS011;33721;48.852;9.936;2022-07-29T03:39:33;16.38;;;10.00;;
47960;SDS011;33721;48.852;9.936;2022-07-29T03:42:03;16.00;;;9.68;;
47960;SDS011;33721;48.852;9.936;2022-07-29T03:44:31;19.00;;;10.48;;
47960;SDS011;33721;48.852;9.936;2022-07-29T03:46:58;15.93;;;11.73;;
47960;SDS011;33721;48.852;9.936;2022-07-29T03:49:26;16.85;;;11.27;;
47960;SDS011;33721;48.852;9.936;2022-07-29T03:51:54;14.95;;;10.73;;
47960;SDS011;33721;48.852;9.936;2022-07-29T03:54:20;16.75;;;10.95;;
47960;SDS011;33721;48.852;9.936;2022-07-29T03:56:46;14.00;;;10.48;;
47960;SDS011;33721;48.852;9.936;2022-07-29T03:59:15;15.23;;;10.93;;
47960;SDS011;33721;48.852;9.936;2022-07-29T04:01:44;17.02;;;9.93;;
47960;SDS011;33721;48.852;9.936;2022-07-29T04:04:11;15.63;;;10.55;;
47960;SDS011;33721;48.852;9.936;2022-07-29T04:06:38;13.98;;;10.68;;
47960;SDS011;33721;48.852;9.936;2022-07-29T04:09:08;20.48;;;10.35;;
47960;SDS011;33721;48.852;9.936;2022-07-29T04:11:35;16.23;;;10.95;;
47960;SDS011;33721;48.852;9.936;2022-07-29T04:14:02;17.30;;;11.35;;
47960;SDS011;33721;48.852;9.936;2022-07-29T04:16:28;17.45;;;11.68;;
47960;SDS011;33721;48.852;9.936;2022-07-29T04:18:54;14.65;;;11.05;;
47960;SDS011;33721;48.852;9.936;2022-07-29T04:21:19;13.80;;;10.60;;
47960;SDS011;33721;48.852;9.936;2022-07-29T04:23:45;16.88;;;10.63;;
47960;SDS011;33721;48.852;9.936;2022-07-29T04:26:14;16.65;;;10.73;;
47960;SDS011;33721;48.852;9.936;2022-07-29T04:28:41;14.20;;;10.25;;
47960;SDS011;33721;48.852;9.936;2022-07-29T04:31:07;15.55;;;10.45;;
47960;SDS011;33721;48.852;9.936;2022-07-29T04:33:34;18.77;;;10.77;;
47960;SDS011;33721;48.852;9.936;2022-07-29T04:35:59;16.92;;;10.60;;
47960;SDS011;33721;48.852;9.936;2022-07-29T04:38:25;14.63;;;10.68;;
47960;SDS011;33721;48.852;9.936;2022-07-29T04:40:51;15.65;;;11.07;;
47960;SDS011;33721;48.852;9.936;2022-07-29T04:43:17;18.15;;;12.10;;
47960;SDS011;33721;48.852;9.936;2022-07-29T04:45:42;22.10;;;13.55;;
47960;SDS011;33721;48.852;9.936;2022-07-29T04:48:08;21.35;;;14.25;;
47960;SDS011;33721;48.852;9.936;2022-07-29T04:50:34;20.90;;;13.23;;
47960;SDS011;33721;48.852;9.936;2022-07-29T04:53:02;18.98;;;12.50;;
47960;SDS011;33721;48.852;9.936;2022-07-29T04:55:28;17.52;;;12.35;;
47960;SDS011;33721;48.852;9.936;2022-07-29T04:57:53;20.33;;;12.73;;
47960;SDS011;33721;48.852;9.936;2022-07-29T05:00:19;20.02;;;11.20;;
47960;SDS011;33721;48.852;9.936;2022-07-29T05:02:45;18.98;;;10.80;;
47960;SDS011;33721;48.852;9.936;2022-07-29T05:05:10;19.17;;;11.10;;
47960;SDS011;33721;48.852;9.936;2022-07-29T05:07:36;17.25;;;11.32;;
47960;SDS011;33721;48.852;9.936;2022-07-29T05:10:02;17.02;;;10.93;;
47960;SDS011;33721;48.852;9.936;2022-07-29T05:12:28;17.02;;;11.18;;
47960;SDS011;33721;48.852;9.936;2022-07-29T05:14:54;15.10;;;10.63;;
47960;SDS011;33721;48.852;9.936;2022-07-29T05:17:20;17.25;;;11.35;;
47960;SDS011;33721;48.852;9.936;2022-07-29T05:19:45;16.02;;;11.02;;
47960;SDS011;33721;48.852;9.936;2022-07-29T05:22:11;14.05;;;10.07;;
47960;SDS011;33721;48.852;9.936;2022-07-29T05:24:36;15.82;;;11.02;;
47960;SDS011;33721;48.852;9.936;2022-07-29T05:27:02;16.08;;;9.75;;
47960;SDS011;33721;48.852;9.936;2022-07-29T05:29:28;16.52;;;10.98;;
47960;SDS011;33721;48.852;9.936;2022-07-29T05:31:54;14.57;;;10.35;;
47960;SDS011;33721;48.852;9.936;2022-07-29T05:34:20;15.48;;;10.40;;
47960;SDS011;33721;48.852;9.936;2022-07-29T05:36:45;17.92;;;11.85;;
47960;SDS011;33721;48.852;9.936;2022-07-29T05:39:11;17.52;;;10.75;;
47960;SDS011;33721;48.852;9.936;2022-07-29T05:41:38;19.00;;;10.70;;
47960;SDS011;33721;48.852;9.936;2022-07-29T05:44:03;14.55;;;10.73;;
47960;SDS011;33721;48.852;9.936;2022-07-29T05:46:29;16.65;;;11.00;;
47960;SDS011;33721;48.852;9.936;2022-07-29T05:48:55;15.82;;;10.35;;
47960;SDS011;33721;48.852;9.936;2022-07-29T05:51:21;16.67;;;10.88;;
47960;SDS011;33721;48.852;9.936;2022-07-29T05:53:46;14.88;;;10.25;;
47960;SDS011;33721;48.852;9.936;2022-07-29T05:56:12;20.17;;;11.07;;
47960;SDS011;33721;48.852;9.936;2022-07-29T05:58:38;17.33;;;10.05;;
47960;SDS011;33721;48.852;9.936;2022-07-29T06:01:03;14.15;;;10.18;;
47960;SDS011;33721;48.852;9.936;2022-07-29T06:03:29;18.05;;;11.05;;
47960;SDS011;33721;48.852;9.936;2022-07-29T06:05:55;16.70;;;9.57;;
47960;SDS011;33721;48.852;9.936;2022-07-29T06:08:21;15.50;;;10.73;;
47960;SDS011;33721;48.852;9.936;2022-07-29T06:10:47;22.10;;;10.52;;
47960;SDS011;33721;48.852;9.936;2022-07-29T06:13:12;17.00;;;10.85;;
47960;SDS011;33721;48.852;9.936;2022-07-29T06:15:40;15.70;;;10.25;;
47960;SDS011;33721;48.852;9.936;2022-07-29T06:18:07;15.32;;;9.93;;
47960;SDS011;33721;48.852;9.936;2022-07-29T06:20:34;14.18;;;9.95;;
47960;SDS011;33721;48.852;9.936;2022-07-29T06:23:00;13.57;;;9.70;;
47960;SDS011;33721;48.852;9.936;2022-07-29T06:25:26;15.95;;;10.13;;
47960;SDS011;33721;48.852;9.936;2022-07-29T06:27:55;14.95;;;10.40;;
47960;SDS011;33721;48.852;9.936;2022-07-29T06:30:21;14.15;;;10.15;;
47960;SDS011;33721;48.852;9.936;2022-07-29T06:32:47;14.35;;;9.18;;
47960;SDS011;33721;48.852;9.936;2022-07-29T06:35:13;16.58;;;10.43;;
47960;SDS011;33721;48.852;9.936;2022-07-29T06:37:38;17.67;;;9.32;;
47960;SDS011;33721;48.852;9.936;2022-07-29T06:40:04;12.30;;;8.90;;
47960;SDS011;33721;48.852;9.936;2022-07-29T06:42:48;12.85;;;8.60;;
47960;SDS011;33721;48.852;9.936;2022-07-29T06:45:14;14.52;;;8.35;;
47960;SDS011;33721;48.852;9.936;2022-07-29T06:47:41;14.50;;;7.88;;
47960;SDS011;33721;48.852;9.936;2022-07-29T06:50:07;12.52;;;7.45;;
47960;SDS011;33721;48.852;9.936;2022-07-29T06:52:36;20.50;;;7.63;;
47960;SDS011;33721;48.852;9.936;2022-07-29T06:55:02;11.15;;;7.82;;
47960;SDS011;33721;48.852;9.936;2022-07-29T06:57:28;12.43;;;7.60;;
47960;SDS011;33721;48.852;9.936;2022-07-29T06:59:55;11.25;;;6.82;;
47960;SDS011;33721;48.852;9.936;2022-07-29T07:02:21;11.40;;;6.68;;
47960;SDS011;33721;48.852;9.936;2022-07-29T07:04:47;15.68;;;6.72;;
47960;SDS011;33721;48.852;9.936;2022-07-29T07:07:13;11.15;;;7.15;;
47960;SDS011;33721;48.852;9.936;2022-07-29T07:09:38;10.30;;;6.97;;
47960;SDS011;33721;48.852;9.936;2022-07-29T07:12:04;10.20;;;6.03;;
47960;SDS011;33721;48.852;9.936;2022-07-29T07:14:31;9.40;;;6.20;;
47960;SDS011;33721;48.852;9.936;2022-07-29T07:16:56;9.55;;;6.00;;
47960;SDS011;33721;48.852;9.936;2022-07-29T07:19:22;10.13;;;5.43;;
47960;SDS011;33721;48.852;9.936;2022-07-29T07:21:48;9.57;;;4.63;;
47960;SDS011;33721;48.852;9.936;2022-07-29T07:24:13;7.60;;;4.70;;
47960;SDS011;33721;48.852;9.936;2022-07-29T07:26:39;8.60;;;5.35;;
47960;SDS011;33721;48.852;9.936;2022-07-29T07:29:05;11.77;;;5.05;;
47960;SDS011;33721;48.852;9.936;2022-07-29T07:31:31;4.78;;;3.60;;
47960;SDS011;33721;48.852;9.936;2022-07-29T07:33:56;10.77;;;4.32;;
47960;SDS011;33721;48.852;9.936;2022-07-29T07:36:22;6.28;;;3.95;;
47960;SDS011;33721;48.852;9.936;2022-07-29T07:38:48;6.93;;;4.13;;
47960;SDS011;33721;48.852;9.936;2022-07-29T07:41:14;6.53;;;4.25;;
47960;SDS011;33721;48.852;9.936;2022-07-29T07:43:40;8.82;;;4.22;;
47960;SDS011;33721;48.852;9.936;2022-07-29T07:46:06;6.15;;;3.83;;
47960;SDS011;33721;48.852;9.936;2022-07-29T07:48:31;5.97;;;3.80;;
47960;SDS011;33721;48.852;9.936;2022-07-29T07:50:59;5.57;;;3.55;;
47960;SDS011;33721;48.852;9.936;2022-07-29T07:53:25;4.22;;;3.42;;
47960;SDS011;33721;48.852;9.936;2022-07-29T07:55:51;7.05;;;3.67;;
47960;SDS011;33721;48.852;9.936;2022-07-29T07:58:17;10.30;;;4.03;;
47960;SDS011;33721;48.852;9.936;2022-07-29T08:00:42;4.50;;;3.40;;
47960;SDS011;33721;48.852;9.936;2022-07-29T08:03:08;7.63;;;3.63;;
47960;SDS011;33721;48.852;9.936;2022-07-29T08:05:37;4.85;;;3.65;;
47960;SDS011;33721;48.852;9.936;2022-07-29T08:08:03;5.93;;;3.90;;
47960;SDS011;33721;48.852;9.936;2022-07-29T08:10:29;5.68;;;3.78;;
47960;SDS011;33721;48.852;9.936;2022-07-29T08:13:24;7.10;;;3.80;;
47960;SDS011;33721;48.852;9.936;2022-07-29T08:15:53;6.75;;;3.90;;
47960;SDS011;33721;48.852;9.936;2022-07-29T08:18:36;4.72;;;3.70;;
47960;SDS011;33721;48.852;9.936;2022-07-29T08:21:03;5.97;;;3.50;;
47960;SDS011;33721;48.852;9.936;2022-07-29T08:23:29;5.70;;;3.80;;
47960;SDS011;33721;48.852;9.936;2022-07-29T08:26:10;6.68;;;3.63;;
47960;SDS011;33721;48.852;9.936;2022-07-29T08:28:38;3.90;;;3.33;;
47960;SDS011;33721;48.852;9.936;2022-07-29T08:31:04;9.30;;;3.70;;
47960;SDS011;33721;48.852;9.936;2022-07-29T08:33:30;5.90;;;4.10;;
47960;SDS011;33721;48.852;9.936;2022-07-29T08:35:56;5.40;;;3.80;;
47960;SDS011;33721;48.852;9.936;2022-07-29T08:38:21;5.75;;;3.92;;
47960;SDS011;33721;48.852;9.936;2022-07-29T08:40:47;6.40;;;4.07;;
47960;SDS011;33721;48.852;9.936;2022-07-29T08:43:13;8.18;;;4.22;;
47960;SDS011;33721;48.852;9.936;2022-07-29T08:45:46;5.90;;;4.03;;
47960;SDS011;33721;48.852;9.936;2022-07-29T08:48:14;8.02;;;4.88;;
47960;SDS011;33721;48.852;9.936;2022-07-29T08:50:42;10.68;;;4.72;;
47960;SDS011;33721;48.852;9.936;2022-07-29T08:53:12;6.15;;;4.53;;
47960;SDS011;33721;48.852;9.936;2022-07-29T08:55:40;7.10;;;4.20;;
47960;SDS011;33721;48.852;9.936;2022-07-29T08:58:10;7.25;;;4.70;;
47960;SDS011;33721;48.852;9.936;2022-07-29T09:00:37;8.88;;;4.65;;
47960;SDS011;33721;48.852;9.936;2022-07-29T09:03:08;5.80;;;4.53;;
47960;SDS011;33721;48.852;9.936;2022-07-29T09:05:35;9.60;;;5.32;;
47960;SDS011;33721;48.852;9.936;2022-07-29T09:08:02;8.38;;;5.28;;
47960;SDS011;33721;48.852;9.936;2022-07-29T09:10:29;8.80;;;5.13;;
47960;SDS011;33721;48.852;9.936;2022-07-29T09:12:55;7.00;;;5.05;;
47960;SDS011;33721;48.852;9.936;2022-07-29T09:15:21;6.63;;;4.55;;
47960;SDS011;33721;48.852;9.936;2022-07-29T09:17:47;6.93;;;4.88;;
47960;SDS011;33721;48.852;9.936;2022-07-29T09:20:15;9.07;;;4.75;;
47960;SDS011;33721;48.852;9.936;2022-07-29T09:22:43;9.18;;;4.70;;
47960;SDS011;33721;48.852;9.936;2022-07-29T09:25:12;8.60;;;4.88;;
47960;SDS011;33721;48.852;9.936;2022-07-29T09:27:37;9.90;;;5.38;;
47960;SDS011;33721;48.852;9.936;2022-07-29T09:30:04;6.85;;;5.28;;
47960;SDS011;33721;48.852;9.936;2022-07-29T09:32:35;9.70;;;5.07;;
47960;SDS011;33721;48.852;9.936;2022-07-29T09:35:22;6.75;;;5.32;;
47960;SDS011;33721;48.852;9.936;2022-07-29T09:37:50;8.88;;;5.03;;
47960;SDS011;33721;48.852;9.936;2022-07-29T09:40:23;9.63;;;5.70;;
47960;SDS011;33721;48.852;9.936;2022-07-29T09:42:52;7.60;;;5.88;;
47960;SDS011;33721;48.852;9.936;2022-07-29T09:45:28;10.23;;;5.70;;
47960;SDS011;33721;48.852;9.936;2022-07-29T09:47:58;15.75;;;5.80;;
47960;SDS011;33721;48.852;9.936;2022-07-29T09:50:41;9.05;;;5.53;;
47960;SDS011;33721;48.852;9.936;2022-07-29T09:53:09;10.25;;;5.93;;
47960;SDS011;33721;48.852;9.936;2022-07-29T09:55:51;8.10;;;5.53;;
47960;SDS011;33721;48.852;9.936;2022-07-29T09:58:18;14.82;;;5.82;;
47960;SDS011;33721;48.852;9.936;2022-07-29T10:00:46;12.15;;;5.43;;
47960;SDS011;33721;48.852;9.936;2022-07-29T10:03:12;8.07;;;5.75;;
47960;SDS011;33721;48.852;9.936;2022-07-29T10:05:38;11.55;;;6.10;;
47960;SDS011;33721;48.852;9.936;2022-07-29T10:08:05;10.02;;;6.15;;
47960;SDS011;33721;48.852;9.936;2022-07-29T10:10:37;9.63;;;6.28;;
47960;SDS011;33721;48.852;9.936;2022-07-29T10:13:05;7.95;;;6.10;;
47960;SDS011;33721;48.852;9.936;2022-07-29T10:15:34;8.68;;;5.80;;
47960;SDS011;33721;48.852;9.936;2022-07-29T10:18:03;14.00;;;6.32;;
47960;SDS011;33721;48.852;9.936;2022-07-29T10:20:29;11.25;;;6.40;;
47960;SDS011;33721;48.852;9.936;2022-07-29T10:22:56;8.63;;;6.25;;
47960;SDS011;33721;48.852;9.936;2022-07-29T10:25:22;13.95;;;6.60;;
47960;SDS011;33721;48.852;9.936;2022-07-29T10:27:49;11.00;;;6.00;;
47960;SDS011;33721;48.852;9.936;2022-07-29T10:30:18;9.48;;;6.15;;
47960;SDS011;33721;48.852;9.936;2022-07-29T10:32:54;10.57;;;6.32;;
47960;SDS011;33721;48.852;9.936;2022-07-29T10:43:58;9.52;;;5.75;;
47960;SDS011;33721;48.852;9.936;2022-07-29T10:46:25;9.77;;;6.32;;
47960;SDS011;33721;48.852;9.936;2022-07-29T10:49:04;10.48;;;6.15;;
47960;SDS011;33721;48.852;9.936;2022-07-29T10:51:58;7.53;;;5.97;;
47960;SDS011;33721;48.852;9.936;2022-07-29T10:57:25;9.65;;;6.00;;
47960;SDS011;33721;48.852;9.936;2022-07-29T11:07:25;8.63;;;6.20;;
47960;SDS011;33721;48.852;9.936;2022-07-29T11:15:11;8.23;;;6.40;;
47960;SDS011;33721;48.852;9.936;2022-07-29T11:20:42;12.52;;;6.45;;
47960;SDS011;33721;48.852;9.936;2022-07-29T11:23:25;9.47;;;6.90;;
47960;SDS011;33721;48.852;9.936;2022-07-29T11:39:39;10.00;;;7.30;;
47960;SDS011;33721;48.852;9.936;2022-07-29T11:44:58;10.65;;;7.22;;
47960;SDS011;33721;48.852;9.936;2022-07-29T11:47:33;16.90;;;7.32;;
47960;SDS011;33721;48.852;9.936;2022-07-29T11:50:04;8.50;;;6.88;;
47960;SDS011;33721;48.852;9.936;2022-07-29T11:52:33;8.15;;;6.65;;
47960;SDS011;33721;48.852;9.936;2022-07-29T11:54:59;11.43;;;7.60;;
47960;SDS011;33721;48.852;9.936;2022-07-29T11:57:27;12.43;;;7.18;;
47960;SDS011;33721;48.852;9.936;2022-07-29T11:59:53;10.95;;;7.65;;
47960;SDS011;33721;48.852;9.936;2022-07-29T12:02:22;14.57;;;7.28;;
47960;SDS011;33721;48.852;9.936;2022-07-29T12:04:55;10.65;;;6.97;;
47960;SDS011;33721;48.852;9.936;2022-07-29T12:07:28;11.45;;;7.15;;
47960;SDS011;33721;48.852;9.936;2022-07-29T12:09:57;15.23;;;7.65;;
47960;SDS011;33721;48.852;9.936;2022-07-29T12:12:23;13.48;;;7.70;;
47960;SDS011;33721;48.852;9.936;2022-07-29T12:14:49;11.18;;;7.97;;
47960;SDS011;33721;48.852;9.936;2022-07-29T12:17:29;9.85;;;7.30;;
47960;SDS011;33721;48.852;9.936;2022-07-29T12:19:59;10.70;;;7.72;;
47960;SDS011;33721;48.852;9.936;2022-07-29T12:22:31;13.40;;;7.72;;
47960;SDS011;33721;48.852;9.936;2022-07-29T12:25:02;9.90;;;7.57;;
47960;SDS011;33721;48.852;9.936;2022-07-29T12:27:29;11.25;;;7.80;;
47960;SDS011;33721;48.852;9.936;2022-07-29T12:30:03;9.10;;;7.85;;
47960;SDS011;33721;48.852;9.936;2022-07-29T12:32:34;11.70;;;8.07;;
47960;SDS011;33721;48.852;9.936;2022-07-29T12:35:06;12.82;;;8.18;;
47960;SDS011;33721;48.852;9.936;2022-07-29T12:37:34;11.90;;;7.82;;
47960;SDS011;33721;48.852;9.936;2022-07-29T12:40:02;11.52;;;7.75;;
47960;SDS011;33721;48.852;9.936;2022-07-29T12:42:30;13.55;;;8.18;;
47960;SDS011;33721;48.852;9.936;2022-07-29T12:44:56;12.80;;;8.10;;
47960;SDS011;33721;48.852;9.936;2022-07-29T12:47:22;13.02;;;8.13;;
47960;SDS011;33721;48.852;9.936;2022-07-29T12:49:48;13.05;;;7.72;;
47960;SDS011;33721;48.852;9.936;2022-07-29T12:52:31;12.02;;;8.27;;
47960;SDS011;33721;48.852;9.936;2022-07-29T12:54:58;12.93;;;7.72;;
47960;SDS011;33721;48.852;9.936;2022-07-29T12:57:26;14.20;;;8.20;;
47960;SDS011;33721;48.852;9.936;2022-07-29T13:00:03;18.60;;;8.30;;
47960;SDS011;33721;48.852;9.936;2022-07-29T13:02:29;11.77;;;8.27;;
47960;SDS011;33721;48.852;9.936;2022-07-29T13:04:56;11.75;;;8.57;;
47960;SDS011;33721;48.852;9.936;2022-07-29T13:07:26;12.38;;;8.88;;
47960;SDS011;33721;48.852;9.936;2022-07-29T13:09:54;13.10;;;8.98;;
47960;SDS011;33721;48.852;9.936;2022-07-29T13:15:37;14.45;;;9.05;;
47960;SDS011;33721;48.852;9.936;2022-07-29T13:20:55;14.52;;;9.57;;
47960;SDS011;33721;48.852;9.936;2022-07-29T13:23:21;16.80;;;9.32;;
47960;SDS011;33721;48.852;9.936;2022-07-29T13:25:47;7.85;;;6.07;;
47960;SDS011;33721;48.852;9.936;2022-07-29T13:28:13;7.70;;;5.55;;
47960;SDS011;33721;48.852;9.936;2022-07-29T13:30:39;11.82;;;5.57;;
47960;SDS011;33721;48.852;9.936;2022-07-29T13:33:06;16.42;;;9.98;;
47960;SDS011;33721;48.852;9.936;2022-07-29T13:35:31;13.45;;;10.30;;
47960;SDS011;33721;48.852;9.936;2022-07-29T13:37:57;13.50;;;9.95;;
47960;SDS011;33721;48.852;9.936;2022-07-29T13:40:23;19.70;;;10.85;;
47960;SDS011;33721;48.852;9.936;2022-07-29T13:42:49;15.57;;;10.40;;
47960;SDS011;33721;48.852;9.936;2022-07-29T13:45:15;20.50;;;10.60;;
47960;SDS011;33721;48.852;9.936;2022-07-29T13:47:40;15.05;;;10.50;;
47960;SDS011;33721;48.852;9.936;2022-07-29T13:50:07;23.08;;;9.85;;
47960;SDS011;33721;48.852;9.936;2022-07-29T13:52:35;13.82;;;8.27;;
47960;SDS011;33721;48.852;9.936;2022-07-29T13:55:01;14.43;;;7.13;;
47960;SDS011;33721;48.852;9.936;2022-07-29T13:57:28;10.75;;;6.57;;
47960;SDS011;33721;48.852;9.936;2022-07-29T13:59:54;9.10;;;6.50;;
47960;SDS011;33721;48.852;9.936;2022-07-29T14:02:20;8.02;;;6.10;;
47960;SDS011;33721;48.852;9.936;2022-07-29T14:04:46;12.85;;;7.15;;
47960;SDS011;33721;48.852;9.936;2022-07-29T14:07:11;10.35;;;6.70;;
47960;SDS011;33721;48.852;9.936;2022-07-29T14:09:37;9.15;;;6.00;;
47960;SDS011;33721;48.852;9.936;2022-07-29T14:12:03;9.18;;;6.03;;
47960;SDS011;33721;48.852;9.936;2022-07-29T14:14:29;8.57;;;4.93;;
47960;SDS011;33721;48.852;9.936;2022-07-29T14:16:56;9.55;;;6.00;;
47960;SDS011;33721;48.852;9.936;2022-07-29T14:19:22;7.28;;;4.82;;
47960;SDS011;33721;48.852;9.936;2022-07-29T14:21:47;6.18;;;4.85;;
47960;SDS011;33721;48.852;9.936;2022-07-29T14:24:13;8.48;;;5.30;;
47960;SDS011;33721;48.852;9.936;2022-07-29T14:26:39;7.53;;;4.75;;
47960;SDS011;33721;48.852;9.936;2022-07-29T14:29:04;9.68;;;5.13;;
47960;SDS011;33721;48.852;9.936;2022-07-29T14:31:30;6.78;;;4.85;;
47960;SDS011;33721;48.852;9.936;2022-07-29T14:33:55;6.15;;;4.45;;
47960;SDS011;33721;48.852;9.936;2022-07-29T14:36:21;9.52;;;4.75;;
47960;SDS011;33721;48.852;9.936;2022-07-29T14:38:47;6.40;;;4.38;;
47960;SDS011;33721;48.852;9.936;2022-07-29T14:41:12;6.35;;;4.90;;
47960;SDS011;33721;48.852;9.936;2022-07-29T14:43:38;6.47;;;4.72;;
47960;SDS011;33721;48.852;9.936;2022-07-29T14:46:04;7.07;;;4.40;;
47960;SDS011;33721;48.852;9.936;2022-07-29T14:48:29;5.07;;;3.90;;
47960;SDS011;33721;48.852;9.936;2022-07-29T14:50:55;6.32;;;4.15;;
47960;SDS011;33721;48.852;9.936;2022-07-29T14:53:21;5.78;;;3.60;;
47960;SDS011;33721;48.852;9.936;2022-07-29T14:55:47;6.55;;;4.30;;
47960;SDS011;33721;48.852;9.936;2022-07-29T14:58:13;6.07;;;4.70;;
47960;SDS011;33721;48.852;9.936;2022-07-29T15:00:39;5.85;;;4.30;;
47960;SDS011;33721;48.852;9.936;2022-07-29T15:03:04;6.30;;;3.90;;
47960;SDS011;33721;48.852;9.936;2022-07-29T15:05:30;5.43;;;4.35;;
47960;SDS011;33721;48.852;9.936;2022-07-29T15:07:57;8.35;;;4.65;;
47960;SDS011;33721;48.852;9.936;2022-07-29T15:10:24;9.48;;;4.30;;
47960;SDS011;33721;48.852;9.936;2022-07-29T15:12:51;6.40;;;4.85;;
47960;SDS011;33721;48.852;9.936;2022-07-29T15:15:17;9.75;;;5.05;;
47960;SDS011;33721;48.852;9.936;2022-07-29T15:17:43;6.97;;;5.15;;
47960;SDS011;33721;48.852;9.936;2022-07-29T15:20:09;7.50;;;5.15;;
47960;SDS011;33721;48.852;9.936;2022-07-29T15:22:36;9.55;;;5.38;;
47960;SDS011;33721;48.852;9.936;2022-07-29T15:25:03;8.48;;;5.78;;
47960;SDS011;33721;48.852;9.936;2022-07-29T15:27:29;7.47;;;5.57;;
47960;SDS011;33721;48.852;9.936;2022-07-29T15:29:55;9.30;;;5.93;;
47960;SDS011;33721;48.852;9.936;2022-07-29T15:32:21;10.82;;;6.00;;
47960;SDS011;33721;48.852;9.936;2022-07-29T15:34:47;9.05;;;6.40;;
47960;SDS011;33721;48.852;9.936;2022-07-29T15:37:13;10.15;;;5.88;;
47960;SDS011;33721;48.852;9.936;2022-07-29T15:39:38;8.00;;;5.50;;
47960;SDS011;33721;48.852;9.936;2022-07-29T15:42:04;7.10;;;5.57;;
47960;SDS011;33721;48.852;9.936;2022-07-29T15:44:31;11.25;;;6.10;;